Time,TemperatureF,DewpointF,PressureIn,WindDirection,WindDirectionDegrees,WindSpeedMPH,WindSpeedGustMPH,Humidity,HourlyPrecipIn,Conditions,Clouds,dailyrainin,SoftwareType,DateUTC
2013-06-11 00:00:00,75.5,72.4,30.10,SE,145,0.0,0.0,90,0.00,,,0.01,Wunderground v.1.15,2013-06-11 04:00:00,
2013-06-11 00:05:00,75.4,72.3,30.10,SE,134,0.0,2.0,90,0.00,,,0.00,Wunderground v.1.15,2013-06-11 04:05:00,
2013-06-11 00:10:00,75.3,71.8,30.10,SE,146,1.0,1.0,89,0.00,,,0.00,Wunderground v.1.15,2013-06-11 04:10:00,
2013-06-11 00:20:00,75.1,71.3,30.09,ESE,121,1.0,5.0,88,0.00,,,0.00,Wunderground v.1.15,2013-06-11 04:20:00,
2013-06-11 00:30:00,75.1,71.3,30.09,SE,136,1.0,1.0,88,0.00,,,0.00,Wunderground v.1.15,2013-06-11 04:30:00,
2013-06-11 00:40:00,74.8,71.3,30.09,South,184,0.0,0.0,89,0.00,,,0.00,Wunderground v.1.15,2013-06-11 04:40:00,
2013-06-11 00:45:00,74.6,71.1,30.09,South,183,0.0,0.0,89,0.00,,,0.00,Wunderground v.1.15,2013-06-11 04:45:00,
2013-06-11 00:55:00,74.4,71.3,30.09,WSW,249,0.0,0.0,90,0.00,,,0.00,Wunderground v.1.15,2013-06-11 04:55:00,
2013-06-11 01:04:00,74.2,71.1,30.08,South,191,0.0,1.0,90,0.00,,,0.00,Wunderground v.1.15,2013-06-11 05:04:00,
2013-06-11 01:10:00,74.1,71.3,30.08,SE,132,0.0,1.0,91,0.00,,,0.00,Wunderground v.1.15,2013-06-11 05:10:00,
2013-06-11 01:20:00,74.0,71.2,30.08,South,172,0.0,1.0,91,0.00,,,0.00,Wunderground v.1.15,2013-06-11 05:20:00,
2013-06-11 01:30:00,73.9,71.1,30.07,West,266,0.0,0.0,91,0.00,,,0.00,Wunderground v.1.15,2013-06-11 05:30:00,
2013-06-11 01:40:00,73.8,71.0,30.08,West,266,0.0,0.0,91,0.00,,,0.00,Wunderground v.1.15,2013-06-11 05:40:00,
2013-06-11 01:49:00,73.3,70.8,30.07,West,266,0.0,0.0,92,0.00,,,0.00,Wunderground v.1.15,2013-06-11 05:49:00,
2013-06-11 01:55:00,73.2,70.7,30.07,West,266,0.0,0.0,92,0.00,,,0.00,Wunderground v.1.15,2013-06-11 05:55:00,
2013-06-11 02:05:00,72.9,70.4,30.07,West,266,0.0,1.0,92,0.00,,,0.00,Wunderground v.1.15,2013-06-11 06:05:00,
2013-06-11 02:15:00,72.7,70.6,30.07,West,266,0.0,1.0,93,0.00,,,0.00,Wunderground v.1.15,2013-06-11 06:15:00,
2013-06-11 02:20:00,72.5,70.4,30.07,West,266,0.0,1.0,93,0.00,,,0.00,Wunderground v.1.15,2013-06-11 06:20:00,
2013-06-11 02:30:00,72.4,70.3,30.07,West,265,0.0,0.0,93,0.00,,,0.00,Wunderground v.1.15,2013-06-11 06:30:00,
2013-06-11 02:39:00,72.4,70.6,30.07,West,266,0.0,0.0,94,0.00,,,0.00,Wunderground v.1.15,2013-06-11 06:39:00,
2013-06-11 02:45:00,72.3,70.5,30.07,West,266,0.0,0.0,94,0.00,,,0.00,Wunderground v.1.15,2013-06-11 06:45:00,
2013-06-11 02:55:00,72.0,70.2,30.07,West,266,0.0,0.0,94,0.00,,,0.00,Wunderground v.1.15,2013-06-11 06:55:00,
2013-06-11 03:05:00,71.7,69.9,30.07,West,266,0.0,0.0,94,0.00,,,0.00,Wunderground v.1.15,2013-06-11 07:05:00,
2013-06-11 03:15:00,71.8,70.3,30.07,West,266,0.0,0.0,95,0.00,,,0.00,Wunderground v.1.15,2013-06-11 07:15:00,
2013-06-11 03:25:00,71.7,70.2,30.06,West,266,0.0,0.0,95,0.00,,,0.00,Wunderground v.1.15,2013-06-11 07:25:00,
2013-06-11 03:35:00,71.8,70.3,30.06,West,266,0.0,0.0,95,0.00,,,0.00,Wunderground v.1.15,2013-06-11 07:35:00,
2013-06-11 03:44:00,71.7,70.2,30.06,West,266,0.0,0.0,95,0.00,,,0.00,Wunderground v.1.15,2013-06-11 07:44:00,
2013-06-11 03:50:00,71.6,70.1,30.06,West,266,0.0,0.0,95,0.00,,,0.00,Wunderground v.1.15,2013-06-11 07:50:00,
2013-06-11 04:00:00,71.4,69.9,30.06,West,266,0.0,0.0,95,0.00,,,0.00,Wunderground v.1.15,2013-06-11 08:00:00,
2013-06-11 04:10:00,71.3,69.8,30.06,West,266,0.0,1.0,95,0.00,,,0.00,Wunderground v.1.15,2013-06-11 08:10:00,
2013-06-11 04:15:00,71.2,69.7,30.06,West,266,0.0,1.0,95,0.00,,,0.00,Wunderground v.1.15,2013-06-11 08:15:00,
2013-06-11 04:25:00,71.2,70.0,30.06,West,266,0.0,1.0,96,0.00,,,0.00,Wunderground v.1.15,2013-06-11 08:25:00,
2013-06-11 04:35:00,71.2,69.7,30.06,West,266,0.0,0.0,95,0.00,,,0.00,Wunderground v.1.15,2013-06-11 08:35:00,
2013-06-11 04:45:00,71.1,69.9,30.06,West,266,0.0,0.0,96,0.00,,,0.00,Wunderground v.1.15,2013-06-11 08:45:00,
2013-06-11 04:54:00,70.9,69.4,30.06,West,266,0.0,0.0,95,0.00,,,0.00,Wunderground v.1.15,2013-06-11 08:54:00,
2013-06-11 05:00:00,70.8,69.3,30.06,West,266,0.0,0.0,95,0.00,,,0.00,Wunderground v.1.15,2013-06-11 09:00:00,
2013-06-11 05:10:00,71.0,69.8,30.06,West,266,0.0,0.0,96,0.00,,,0.00,Wunderground v.1.15,2013-06-11 09:10:00,
2013-06-11 05:20:00,71.0,69.8,30.07,West,266,0.0,0.0,96,0.00,,,0.00,Wunderground v.1.15,2013-06-11 09:20:00,
2013-06-11 05:30:00,70.8,69.6,30.06,West,266,0.0,0.0,96,0.00,,,0.00,Wunderground v.1.15,2013-06-11 09:30:00,
2013-06-11 05:40:00,70.5,69.3,30.06,West,266,0.0,0.0,96,0.00,,,0.00,Wunderground v.1.15,2013-06-11 09:40:00,
2013-06-11 05:45:00,70.5,69.3,30.06,West,266,0.0,0.0,96,0.00,,,0.00,Wunderground v.1.15,2013-06-11 09:45:00,
2013-06-11 05:55:00,70.6,69.4,30.06,West,266,0.0,0.0,96,0.00,,,0.00,Wunderground v.1.15,2013-06-11 09:55:00,
2013-06-11 06:05:00,70.5,69.3,30.07,West,266,0.0,0.0,96,0.00,,,0.00,Wunderground v.1.15,2013-06-11 10:05:00,
2013-06-11 06:10:00,70.5,69.6,30.07,West,266,0.0,0.0,97,0.00,,,0.00,Wunderground v.1.15,2013-06-11 10:10:00,
2013-06-11 06:20:00,70.7,69.5,30.07,West,266,0.0,0.0,96,0.00,,,0.00,Wunderground v.1.15,2013-06-11 10:20:00,
2013-06-11 06:29:00,70.8,69.9,30.08,West,266,0.0,0.0,97,0.00,,,0.00,Wunderground v.1.15,2013-06-11 10:29:00,
2013-06-11 06:35:00,70.9,70.0,30.08,West,266,0.0,0.0,97,0.00,,,0.00,Wunderground v.1.15,2013-06-11 10:35:00,
2013-06-11 06:45:00,70.9,70.0,30.08,West,266,0.0,0.0,97,0.00,,,0.00,Wunderground v.1.15,2013-06-11 10:45:00,
2013-06-11 06:55:00,71.2,70.3,30.08,West,266,0.0,0.0,97,0.00,,,0.00,Wunderground v.1.15,2013-06-11 10:55:00,
2013-06-11 07:05:00,71.7,70.8,30.08,West,266,0.0,0.0,97,0.00,,,0.00,Wunderground v.1.15,2013-06-11 11:05:00,
2013-06-11 07:14:00,72.7,71.8,30.08,West,266,0.0,0.0,97,0.00,,,0.00,Wunderground v.1.15,2013-06-11 11:14:00,
2013-06-11 07:20:00,73.7,72.8,30.08,West,266,0.0,0.0,97,0.00,,,0.00,Wunderground v.1.15,2013-06-11 11:20:00,
2013-06-11 07:30:00,75.3,74.1,30.08,West,265,0.0,0.0,96,0.00,,,0.00,Wunderground v.1.15,2013-06-11 11:30:00,
2013-06-11 07:40:00,76.3,74.8,30.08,West,266,0.0,0.0,95,0.00,,,0.00,Wunderground v.1.15,2013-06-11 11:40:00,
2013-06-11 07:50:00,76.8,74.9,30.08,SE,131,0.0,0.0,94,0.00,,,0.00,Wunderground v.1.15,2013-06-11 11:50:00,
2013-06-11 08:00:00,77.3,75.4,30.08,ESE,121,0.0,0.0,94,0.00,,,0.00,Wunderground v.1.15,2013-06-11 12:00:00,
2013-06-11 08:10:00,78.2,76.0,30.08,East,98,0.0,0.0,93,0.00,,,0.00,Wunderground v.1.15,2013-06-11 12:10:00,
2013-06-11 08:20:00,79.5,76.6,30.09,SE,143,0.0,0.0,91,0.00,,,0.00,Wunderground v.1.15,2013-06-11 12:20:00,
2013-06-11 08:30:00,81.1,77.2,30.09,ESE,118,0.0,2.0,88,0.00,,,0.00,Wunderground v.1.15,2013-06-11 12:30:00,
2013-06-11 08:40:00,82.3,77.7,30.09,SSE,152,1.0,1.0,86,0.00,,,0.00,Wunderground v.1.15,2013-06-11 12:40:00,
2013-06-11 08:50:00,83.4,77.3,30.09,SSE,153,1.0,1.0,82,0.00,,,0.00,Wunderground v.1.15,2013-06-11 12:50:00,
2013-06-11 09:00:00,85.1,78.2,30.09,SE,141,1.0,1.0,80,0.00,,,0.00,Wunderground v.1.15,2013-06-11 13:00:00,
2013-06-11 09:09:00,85.3,77.7,30.10,West,261,1.0,2.0,78,0.00,,,0.00,Wunderground v.1.15,2013-06-11 13:09:00,
2013-06-11 09:15:00,85.1,77.5,30.10,SSE,155,1.0,2.0,78,0.00,,,0.00,Wunderground v.1.15,2013-06-11 13:15:00,
2013-06-11 09:25:00,86.0,77.5,30.10,SE,128,1.0,3.0,76,0.00,,,0.00,Wunderground v.1.15,2013-06-11 13:25:00,
2013-06-11 09:35:00,86.9,77.2,30.10,WSW,243,1.0,2.0,73,0.00,,,0.00,Wunderground v.1.15,2013-06-11 13:35:00,
2013-06-11 09:40:00,86.8,77.1,30.10,SW,234,1.0,1.0,73,0.00,,,0.00,Wunderground v.1.15,2013-06-11 13:40:00,
2013-06-11 09:50:00,87.2,77.5,30.10,SSW,195,0.0,0.0,73,0.00,,,0.00,Wunderground v.1.15,2013-06-11 13:50:00,
2013-06-11 09:59:00,88.3,78.1,30.10,WSW,246,0.0,3.0,72,0.00,,,0.00,Wunderground v.1.15,2013-06-11 13:59:00,
2013-06-11 10:05:00,88.3,77.3,30.10,WSW,246,1.0,5.0,70,0.00,,,0.00,Wunderground v.1.15,2013-06-11 14:05:00,
2013-06-11 10:15:00,88.3,77.7,30.10,SW,235,1.0,5.0,71,0.00,,,0.00,Wunderground v.1.15,2013-06-11 14:15:00,
2013-06-11 10:25:00,88.7,77.2,30.10,SW,231,1.0,5.0,69,0.00,,,0.00,Wunderground v.1.15,2013-06-11 14:25:00,
2013-06-11 10:35:00,88.6,78.0,30.10,WSW,240,1.0,1.0,71,0.00,,,0.00,Wunderground v.1.15,2013-06-11 14:35:00,
2013-06-11 10:45:00,89.6,77.6,30.10,SW,217,1.0,2.0,68,0.00,,,0.00,Wunderground v.1.15,2013-06-11 14:45:00,
2013-06-11 10:55:00,89.8,77.8,30.10,NNE,15,0.0,0.0,68,0.00,,,0.00,Wunderground v.1.15,2013-06-11 14:55:00,
2013-06-11 11:05:00,90.8,77.4,30.10,WSW,240,0.0,4.0,65,0.00,,,0.00,Wunderground v.1.15,2013-06-11 15:05:00,
2013-06-11 11:15:00,92.0,77.6,30.10,NNE,26,0.0,4.0,63,0.00,,,0.00,Wunderground v.1.15,2013-06-11 15:15:00,
2013-06-11 11:25:00,92.3,77.4,30.10,NNW,332,1.0,4.0,62,0.00,,,0.00,Wunderground v.1.15,2013-06-11 15:25:00,
2013-06-11 11:35:00,91.8,78.4,30.09,SW,232,1.0,3.0,65,0.00,,,0.00,Wunderground v.1.15,2013-06-11 15:35:00,
2013-06-11 11:45:00,92.8,77.4,30.10,NW,318,0.0,0.0,61,0.00,,,0.00,Wunderground v.1.15,2013-06-11 15:45:00,
2013-06-11 11:55:00,91.7,76.8,30.09,NNE,15,0.0,0.0,62,0.00,,,0.00,Wunderground v.1.15,2013-06-11 15:55:00,
2013-06-11 12:05:00,91.1,76.7,30.09,ESE,115,1.0,1.0,63,0.00,,,0.00,Wunderground v.1.15,2013-06-11 16:05:00,
2013-06-11 12:14:00,91.4,75.1,30.09,NNW,339,1.0,4.0,59,0.00,,,0.00,Wunderground v.1.15,2013-06-11 16:14:00,
2013-06-11 12:20:00,92.4,76.5,30.08,NW,322,0.0,4.0,60,0.00,,,0.00,Wunderground v.1.15,2013-06-11 16:20:00,
2013-06-11 12:30:00,93.8,77.3,30.09,SW,234,1.0,1.0,59,0.00,,,0.00,Wunderground v.1.15,2013-06-11 16:30:00,
2013-06-11 12:40:00,93.4,75.4,30.08,SSW,208,0.0,0.0,56,0.00,,,0.00,Wunderground v.1.15,2013-06-11 16:40:00,
2013-06-11 12:50:00,92.8,76.4,30.08,SW,220,0.0,0.0,59,0.00,,,0.00,Wunderground v.1.15,2013-06-11 16:50:00,
2013-06-11 13:00:00,91.3,76.0,30.08,WSW,239,0.0,0.0,61,0.00,,,0.00,Wunderground v.1.15,2013-06-11 17:00:00,
2013-06-11 13:05:00,91.1,75.8,30.08,West,274,0.0,1.0,61,0.00,,,0.00,Wunderground v.1.15,2013-06-11 17:05:00,
2013-06-11 13:15:00,90.3,76.0,30.07,WSW,241,0.0,3.0,63,0.00,,,0.00,Wunderground v.1.15,2013-06-11 17:15:00,
2013-06-11 13:24:00,89.7,75.9,30.07,SW,228,0.0,3.0,64,0.00,,,0.00,Wunderground v.1.15,2013-06-11 17:24:00,
2013-06-11 13:30:00,89.4,75.6,30.07,NNW,348,0.0,0.0,64,0.00,,,0.00,Wunderground v.1.15,2013-06-11 17:30:00,
2013-06-11 13:40:00,89.2,76.4,30.07,SW,234,0.0,0.0,66,0.00,,,0.00,Wunderground v.1.15,2013-06-11 17:40:00,
2013-06-11 13:50:00,89.3,76.9,30.07,WSW,238,0.0,0.0,67,0.00,,,0.00,Wunderground v.1.15,2013-06-11 17:50:00,
2013-06-11 14:00:00,90.1,77.2,30.06,North,8,0.0,0.0,66,0.00,,,0.00,Wunderground v.1.15,2013-06-11 18:00:00,
2013-06-11 14:09:00,90.7,76.8,30.07,WSW,250,0.0,2.0,64,0.00,,,0.00,Wunderground v.1.15,2013-06-11 18:09:00,
2013-06-11 14:15:00,90.7,76.8,30.08,South,190,0.0,2.0,64,0.00,,,0.00,Wunderground v.1.15,2013-06-11 18:15:00,
2013-06-11 14:25:00,89.6,76.7,30.07,WSW,248,1.0,2.0,66,0.00,,,0.00,Wunderground v.1.15,2013-06-11 18:25:00,
2013-06-11 14:35:00,87.9,74.7,30.07,WSW,242,3.0,4.0,65,0.00,,,0.00,Wunderground v.1.15,2013-06-11 18:35:00,
2013-06-11 14:45:00,84.7,70.7,30.08,SSW,205,5.0,5.0,63,0.00,,,0.00,Wunderground v.1.15,2013-06-11 18:45:00,
2013-06-11 14:55:00,82.5,68.2,30.07,NW,316,4.0,5.0,62,0.00,,,0.00,Wunderground v.1.15,2013-06-11 18:55:00,
2013-06-11 15:00:00,81.6,69.1,30.07,SW,224,4.0,4.0,66,0.00,,,0.00,Wunderground v.1.15,2013-06-11 19:00:00,
2013-06-11 15:10:00,80.1,70.3,30.06,SSW,211,3.0,3.0,72,0.00,,,0.00,Wunderground v.1.15,2013-06-11 19:10:00,
2013-06-11 15:19:00,79.3,70.7,30.06,WSW,258,3.0,6.0,75,0.00,,,0.00,Wunderground v.1.15,2013-06-11 19:19:00,
2013-06-11 15:25:00,79.0,71.6,30.09,SSW,201,3.0,6.0,78,0.00,,,0.00,Wunderground v.1.15,2013-06-11 19:25:00,
2013-06-11 15:35:00,78.6,71.9,30.08,WSW,252,2.0,3.0,80,0.00,,,0.00,Wunderground v.1.15,2013-06-11 19:35:00,
2013-06-11 15:45:00,78.5,72.2,30.09,WSW,243,1.0,1.0,81,0.00,,,0.00,Wunderground v.1.15,2013-06-11 19:45:00,
2013-06-11 15:55:00,78.4,72.4,30.09,NNE,30,0.0,1.0,82,0.00,,,0.00,Wunderground v.1.15,2013-06-11 19:55:00,
2013-06-11 16:05:00,78.4,72.4,30.08,North,11,0.0,13.0,82,0.00,,,0.00,Wunderground v.1.15,2013-06-11 20:05:00,
2013-06-11 16:15:00,77.4,71.8,30.10,NE,44,2.0,13.0,83,0.00,,,0.00,Wunderground v.1.15,2013-06-11 20:15:00,
2013-06-11 16:25:00,75.7,71.2,30.09,NE,44,3.0,13.0,86,0.00,,,0.00,Wunderground v.1.15,2013-06-11 20:25:00,
2013-06-11 16:30:00,75.3,71.5,30.08,North,360,3.0,3.0,88,0.00,,,0.00,Wunderground v.1.15,2013-06-11 20:30:00,
2013-06-11 16:40:00,74.7,71.2,30.08,NE,40,3.0,3.0,89,0.00,,,0.00,Wunderground v.1.15,2013-06-11 20:40:00,
2013-06-11 16:50:00,74.0,71.2,30.08,NE,41,2.0,2.0,91,0.00,,,0.00,Wunderground v.1.15,2013-06-11 20:50:00,
2013-06-11 16:55:00,73.9,71.4,30.08,NNE,25,2.0,2.0,92,0.00,,,0.00,Wunderground v.1.15,2013-06-11 20:55:00,
2013-06-11 17:05:00,73.6,71.4,30.08,NE,37,1.0,4.0,93,0.00,,,0.00,Wunderground v.1.15,2013-06-11 21:05:00,
2013-06-11 17:15:00,73.6,71.8,30.07,NNW,333,0.0,4.0,94,0.00,,,0.00,Wunderground v.1.15,2013-06-11 21:15:00,
2013-06-11 17:25:00,73.8,72.0,30.08,ENE,72,0.0,4.0,94,0.00,,,0.01,Wunderground v.1.15,2013-06-11 21:25:00,
2013-06-11 17:34:00,73.7,71.9,30.08,ESE,111,1.0,2.0,94,0.00,,,0.01,Wunderground v.1.15,2013-06-11 21:34:00,
2013-06-11 17:40:00,73.5,71.7,30.08,SE,139,2.0,2.0,94,0.04,,,0.02,Wunderground v.1.15,2013-06-11 21:40:00,
2013-06-11 17:50:00,73.5,72.0,30.08,SE,145,1.0,1.0,95,0.09,,,0.03,Wunderground v.1.15,2013-06-11 21:50:00,
2013-06-11 18:00:00,73.8,72.3,30.08,East,96,3.0,3.0,95,0.06,,,0.04,Wunderground v.1.15,2013-06-11 22:00:00,
2013-06-11 18:10:00,74.1,72.6,30.08,SE,145,2.0,2.0,95,0.05,,,0.05,Wunderground v.1.15,2013-06-11 22:10:00,
2013-06-11 18:20:00,74.5,73.0,30.07,East,79,1.0,1.0,95,0.04,,,0.05,Wunderground v.1.15,2013-06-11 22:20:00,
2013-06-11 18:25:00,74.9,73.4,30.07,ENE,76,1.0,1.0,95,0.00,,,0.05,Wunderground v.1.15,2013-06-11 22:25:00,
2013-06-11 18:35:00,75.3,73.8,30.06,East,95,1.0,4.0,95,0.00,,,0.05,Wunderground v.1.15,2013-06-11 22:35:00,
2013-06-11 18:45:00,75.5,74.0,30.06,ESE,112,3.0,3.0,95,0.00,,,0.05,Wunderground v.1.15,2013-06-11 22:45:00,
2013-06-11 18:50:00,75.7,74.2,30.05,SE,145,2.0,3.0,95,0.00,,,0.05,Wunderground v.1.15,2013-06-11 22:50:00,
2013-06-11 19:00:00,76.3,74.8,30.05,ESE,123,2.0,2.0,95,0.00,,,0.05,Wunderground v.1.15,2013-06-11 23:00:00,
2013-06-11 19:09:00,76.4,74.2,30.05,ESE,105,2.0,5.0,93,0.00,,,0.05,Wunderground v.1.15,2013-06-11 23:09:00,
2013-06-11 19:15:00,76.4,74.2,30.05,ESE,102,2.0,5.0,93,0.00,,,0.05,Wunderground v.1.15,2013-06-11 23:15:00,
2013-06-11 19:25:00,76.6,74.1,30.05,East,94,3.0,5.0,92,0.00,,,0.05,Wunderground v.1.15,2013-06-11 23:25:00,
2013-06-11 19:35:00,76.8,74.3,30.05,SE,145,4.0,4.0,92,0.00,,,0.05,Wunderground v.1.15,2013-06-11 23:35:00,
2013-06-11 19:45:00,76.8,74.0,30.05,SE,143,2.0,3.0,91,0.00,,,0.05,Wunderground v.1.15,2013-06-11 23:45:00,
2013-06-11 19:55:00,76.6,73.8,30.04,SE,146,1.0,2.0,91,0.00,,,0.05,Wunderground v.1.15,2013-06-11 23:55:00,
2013-06-11 20:05:00,76.4,73.9,30.03,SSE,149,0.0,5.0,92,0.00,,,0.05,Wunderground v.1.15,2013-06-12 00:05:00,
2013-06-11 20:15:00,76.0,73.5,30.04,SE,138,0.0,5.0,92,0.00,,,0.05,Wunderground v.1.15,2013-06-12 00:15:00,
2013-06-11 20:25:00,75.8,73.3,30.04,SE,138,0.0,5.0,92,0.00,,,0.05,Wunderground v.1.15,2013-06-12 00:25:00,
2013-06-11 20:35:00,75.6,73.4,30.04,WNW,295,0.0,0.0,93,0.00,,,0.05,Wunderground v.1.15,2013-06-12 00:35:00,
2013-06-11 20:45:00,75.2,73.0,30.04,WNW,295,0.0,0.0,93,0.00,,,0.05,Wunderground v.1.15,2013-06-12 00:45:00,
2013-06-11 20:55:00,74.9,72.7,30.04,WSW,238,0.0,0.0,93,0.00,,,0.05,Wunderground v.1.15,2013-06-12 00:55:00,
2013-06-11 21:04:00,74.6,72.8,30.04,WSW,239,0.0,5.0,94,0.00,,,0.05,Wunderground v.1.15,2013-06-12 01:04:00,
2013-06-11 21:10:00,74.4,72.6,30.04,WSW,239,0.0,5.0,94,0.00,,,0.05,Wunderground v.1.15,2013-06-12 01:10:00,
2013-06-11 21:20:00,74.0,72.2,30.03,WSW,238,0.0,5.0,94,0.00,,,0.05,Wunderground v.1.15,2013-06-12 01:20:00,
2013-06-11 21:30:00,73.9,72.4,30.03,SW,235,0.0,0.0,95,0.00,,,0.05,Wunderground v.1.15,2013-06-12 01:30:00,
2013-06-11 21:40:00,73.5,72.0,30.04,SW,235,0.0,0.0,95,0.00,,,0.05,Wunderground v.1.15,2013-06-12 01:40:00,
2013-06-11 21:49:00,73.2,71.7,30.04,SW,236,0.0,0.0,95,0.00,,,0.05,Wunderground v.1.15,2013-06-12 01:49:00,
2013-06-11 21:55:00,73.1,71.6,30.04,SW,236,0.0,0.0,95,0.00,,,0.05,Wunderground v.1.15,2013-06-12 01:55:00,
2013-06-11 22:05:00,73.0,71.5,30.04,SW,236,0.0,1.0,95,0.00,,,0.05,Wunderground v.1.15,2013-06-12 02:05:00,
2013-06-11 22:15:00,72.8,71.3,30.05,WSW,243,0.0,1.0,95,0.00,,,0.05,Wunderground v.1.15,2013-06-12 02:15:00,
2013-06-11 22:20:00,72.8,71.3,30.05,SW,228,0.0,1.0,95,0.00,,,0.05,Wunderground v.1.15,2013-06-12 02:20:00,
2013-06-11 22:30:00,72.7,71.5,30.05,SW,228,0.0,0.0,96,0.00,,,0.05,Wunderground v.1.15,2013-06-12 02:30:00,
2013-06-11 22:39:00,72.7,71.5,30.05,SSW,207,0.0,0.0,96,0.00,,,0.05,Wunderground v.1.15,2013-06-12 02:39:00,
2013-06-11 22:45:00,72.6,71.4,30.05,SSW,207,0.0,0.0,96,0.00,,,0.05,Wunderground v.1.15,2013-06-12 02:45:00,
2013-06-11 22:55:00,72.6,71.4,30.06,SSW,203,0.0,1.0,96,0.00,,,0.05,Wunderground v.1.15,2013-06-12 02:55:00,
2013-06-11 23:05:00,72.9,71.7,30.06,SW,219,0.0,1.0,96,0.00,,,0.05,Wunderground v.1.15,2013-06-12 03:05:00,
2013-06-11 23:15:00,73.1,72.2,30.07,WSW,252,0.0,2.0,97,0.00,,,0.05,Wunderground v.1.15,2013-06-12 03:15:00,
2013-06-11 23:25:00,73.2,72.0,30.07,WSW,242,0.0,1.0,96,0.00,,,0.05,Wunderground v.1.15,2013-06-12 03:25:00,
2013-06-11 23:35:00,73.1,71.9,30.07,SE,125,0.0,0.0,96,0.00,,,0.05,Wunderground v.1.15,2013-06-12 03:35:00,
2013-06-11 23:45:00,73.0,71.8,30.08,SW,217,0.0,0.0,96,0.00,,,0.05,Wunderground v.1.15,2013-06-12 03:45:00,
2013-06-11 23:50:00,72.9,71.7,30.08,ESE,123,0.0,0.0,96,0.00,,,0.05,Wunderground v.1.15,2013-06-12 03:50:00,